Time;durP1;ratioP1;P1;durP2;ratioP2;P2;SDS_P1;SDS_P2;PMS_P1;PMS_P2;Temp;Humidity;BMP_temperature;BMP_pressure;BME280_temperature;BME280_humidity;BME280_pressure;Samples;Min_cycle;Max_cycle;Signal;HPM_P1;HPM_P2
2024/04/15 00:00:14;;;;;;;3.80;1.88;;;;;;;15.20;42.48;94318.34;5540899;25;19985;-82
2024/04/15 00:02:39;;;;;;;3.85;1.63;;;;;;;15.19;43.02;94319.47;5509544;26;19989;-82
2024/04/15 00:05:05;;;;;;;7.70;2.17;;;;;;;15.14;43.09;94315.09;5509519;26;19985;-82
2024/04/15 00:07:32;;;;;;;5.25;2.35;;;;;;;15.14;43.38;94312.41;5540851;26;19985;-82
2024/04/15 00:09:57;;;;;;;4.43;1.45;;;;;;;15.19;43.43;94314.88;5540583;26;20118;-83
2024/04/15 00:12:22;;;;;;;12.38;2.05;;;;;;;15.17;44.13;94302.91;5540836;25;19985;-82
2024/04/15 00:14:48;;;;;;;4.25;1.80;;;;;;;15.13;44.51;94302.00;5540734;25;19995;-83
2024/04/15 00:17:13;;;;;;;4.68;1.73;;;;;;;15.10;44.54;94303.44;5540445;26;20037;-82
2024/04/15 00:19:38;;;;;;;4.97;1.80;;;;;;;15.08;44.79;94302.19;5540645;25;20196;-82
2024/04/15 00:22:04;;;;;;;2.53;1.42;;;;;;;15.01;45.32;94298.13;5540804;25;19996;-82
2024/04/15 00:24:30;;;;;;;4.70;2.20;;;;;;;14.99;45.15;94304.97;5540088;25;19981;-83
2024/04/15 00:26:55;;;;;;;9.45;3.05;;;;;;;14.95;45.34;94291.41;5540513;26;20009;-83
2024/04/15 00:29:22;;;;;;;4.50;1.80;;;;;;;14.84;45.62;94295.63;5540132;25;19981;-81
2024/04/15 00:31:47;;;;;;;8.90;2.00;;;;;;;14.78;45.76;94296.94;5540692;25;20170;-81
2024/04/15 00:34:14;;;;;;;2.65;1.60;;;;;;;14.71;45.92;94300.13;5540591;25;19994;-81
2024/04/15 00:36:40;;;;;;;4.05;1.60;;;;;;;14.71;46.82;94304.72;5540480;26;20092;-81
2024/04/15 00:39:05;;;;;;;6.10;1.73;;;;;;;14.69;46.67;94301.56;5538843;25;20196;-80
2024/04/15 00:41:31;;;;;;;3.42;1.40;;;;;;;14.60;46.45;94305.13;5539907;25;19989;-83
2024/04/15 00:43:56;;;;;;;3.80;1.70;;;;;;;14.58;46.28;94304.66;5540565;26;20001;-82
2024/04/15 00:46:22;;;;;;;7.22;1.88;;;;;;;14.58;46.24;94301.19;5540236;25;19985;-81
2024/04/15 00:48:47;;;;;;;7.55;1.80;;;;;;;14.56;46.14;94298.84;5540693;26;20021;-81
2024/04/15 00:51:14;;;;;;;2.70;1.65;;;;;;;14.57;46.47;94300.41;5540409;26;19997;-81
2024/04/15 00:53:41;;;;;;;3.92;1.77;;;;;;;14.54;47.31;94294.88;5540160;26;19985;-81
2024/04/15 00:56:09;;;;;;;8.82;1.90;;;;;;;14.49;47.52;94285.16;5540505;26;19982;-82
2024/04/15 00:58:35;;;;;;;9.80;1.65;;;;;;;14.39;47.79;94283.63;5540406;26;19994;-81
2024/04/15 01:01:01;;;;;;;8.10;3.38;;;;;;;14.37;47.76;94285.03;5508410;26;20030;-81
2024/04/15 01:03:27;;;;;;;7.00;1.95;;;;;;;14.37;47.75;94279.69;5540096;26;19992;-81
2024/04/15 01:05:53;;;;;;;4.40;2.03;;;;;;;14.38;48.49;94278.59;5539790;25;20133;-82
2024/04/15 01:08:19;;;;;;;6.53;1.65;;;;;;;14.26;48.44;94268.56;5539835;25;20208;-82
2024/04/15 01:10:45;;;;;;;5.03;1.83;;;;;;;14.21;49.06;94285.63;5539855;25;20212;-82
2024/04/15 01:13:10;;;;;;;4.10;2.25;;;;;;;14.19;48.20;94284.41;5539550;25;20022;-82
2024/04/15 01:15:36;;;;;;;4.80;1.88;;;;;;;14.17;48.16;94284.72;5539957;26;19992;-83
2024/04/15 01:18:01;;;;;;;5.13;2.00;;;;;;;14.15;48.29;94291.53;5539804;25;20010;-82
2024/04/15 01:20:28;;;;;;;6.68;1.50;;;;;;;14.15;48.83;94288.84;5539600;25;19990;-81
2024/04/15 01:23:14;;;;;;;6.10;3.08;;;;;;;14.14;49.26;94288.03;5539582;26;19986;-82
2024/04/15 01:25:40;;;;;;;3.95;1.83;;;;;;;14.11;48.69;94288.69;5539505;26;20084;-82
2024/04/15 01:28:05;;;;;;;7.45;2.88;;;;;;;14.08;48.64;94289.31;5539870;25;19988;-83
2024/04/15 01:30:31;;;;;;;4.78;2.17;;;;;;;14.09;48.83;94290.13;5539240;25;20081;-82
2024/04/15 01:32:58;;;;;;;7.88;2.00;;;;;;;14.11;49.30;94293.28;5539586;25;19996;-81
2024/04/15 01:35:24;;;;;;;3.70;1.90;;;;;;;14.09;49.30;94274.84;5539450;26;20081;-83
2024/04/15 01:37:50;;;;;;;3.25;1.85;;;;;;;14.06;49.48;94283.50;5539526;26;20080;-82
2024/04/15 01:40:15;;;;;;;3.47;2.50;;;;;;;14.07;49.92;94287.00;5539869;26;19982;-83
2024/04/15 01:42:41;;;;;;;8.65;2.10;;;;;;;14.02;50.19;94275.34;5539376;25;19982;-82
2024/04/15 01:45:06;;;;;;;9.60;2.17;;;;;;;13.99;50.49;94272.53;5540048;25;19985;-83
2024/04/15 01:47:34;;;;;;;3.58;1.50;;;;;;;13.95;51.08;94285.00;5539616;26;20001;-82
2024/04/15 01:50:00;;;;;;;3.63;1.73;;;;;;;13.88;51.16;94276.66;5538965;25;20027;-82
2024/04/15 01:52:25;;;;;;;7.05;2.00;;;;;;;13.82;51.04;94279.53;5539591;26;19981;-82
2024/04/15 01:54:51;;;;;;;4.05;1.88;;;;;;;13.80;51.88;94284.44;5539417;25;20029;-82
2024/04/15 01:57:16;;;;;;;4.60;2.03;;;;;;;13.69;51.70;94267.16;5539209;26;19986;-82
2024/04/15 01:59:41;;;;;;;4.20;1.98;;;;;;;13.64;52.31;94270.78;5539432;26;20117;-82
2024/04/15 02:02:07;;;;;;;3.83;1.90;;;;;;;13.59;52.03;94262.16;5539197;25;19986;-83
2024/04/15 02:04:32;;;;;;;8.55;2.30;;;;;;;13.58;52.19;94265.94;5538942;25;19981;-83
2024/04/15 02:06:57;;;;;;;3.70;2.00;;;;;;;13.53;52.59;94264.22;5539096;25;20404;-83
2024/04/15 02:09:23;;;;;;;4.38;2.33;;;;;;;13.46;52.93;94269.31;5538712;26;19988;-82
2024/04/15 02:11:48;;;;;;;3.58;1.77;;;;;;;13.43;53.11;94276.09;5507339;26;20045;-82
2024/04/15 02:14:14;;;;;;;5.28;2.03;;;;;;;13.41;53.55;94272.13;5539021;26;20033;-82
2024/04/15 02:16:39;;;;;;;2.58;1.65;;;;;;;13.35;53.69;94273.41;5507083;25;19996;-84
2024/04/15 02:19:04;;;;;;;4.60;1.75;;;;;;;13.26;53.63;94262.72;5538990;26;20085;-84
2024/04/15 02:21:30;;;;;;;4.05;1.92;;;;;;;13.27;53.74;94261.63;5538987;26;19992;-83
2024/04/15 02:23:55;;;;;;;5.28;2.28;;;;;;;13.24;53.82;94256.91;5538918;25;20137;-82
2024/04/15 02:26:21;;;;;;;7.25;2.05;;;;;;;13.20;54.10;94254.06;5538858;25;19986;-82
2024/04/15 02:28:46;;;;;;;5.32;2.67;;;;;;;13.18;54.58;94261.63;5538980;26;19982;-82
2024/04/15 02:31:11;;;;;;;8.27;3.17;;;;;;;13.14;53.88;94251.88;5539092;25;19985;-82
2024/04/15 02:33:37;;;;;;;8.25;3.33;;;;;;;13.11;54.36;94252.50;5539147;25;20041;-82
2024/04/15 02:36:02;;;;;;;4.63;2.65;;;;;;;13.12;54.12;94248.75;5538556;25;20030;-82
2024/04/15 02:38:28;;;;;;;10.75;2.72;;;;;;;13.09;54.03;94254.72;5538454;26;20019;-82
2024/04/15 02:40:54;;;;;;;4.75;2.10;;;;;;;13.04;54.06;94248.44;5538144;26;19985;-82
2024/04/15 02:43:20;;;;;;;5.50;2.15;;;;;;;13.00;54.29;94258.19;5538550;26;20038;-83
2024/04/15 02:45:47;;;;;;;3.85;1.85;;;;;;;12.95;54.26;94246.91;5538245;26;19997;-82
2024/04/15 02:48:13;;;;;;;7.70;2.30;;;;;;;12.90;54.70;94247.84;5506190;26;20245;-82
2024/04/15 02:50:39;;;;;;;4.75;2.13;;;;;;;12.87;55.74;94251.16;5538573;26;19989;-83
2024/04/15 02:53:04;;;;;;;5.15;2.42;;;;;;;12.78;54.80;94250.38;5538248;26;20090;-83
2024/04/15 02:55:30;;;;;;;5.68;2.15;;;;;;;12.73;54.70;94242.53;5506275;26;20061;-82
2024/04/15 02:57:56;;;;;;;4.75;2.38;;;;;;;12.71;55.15;94244.72;5538371;26;19997;-83
2024/04/15 03:00:23;;;;;;;5.88;2.95;;;;;;;12.73;54.66;94242.53;5537870;26;19985;-84
2024/04/15 03:02:50;;;;;;;5.05;2.22;;;;;;;12.71;54.89;94242.06;5539469;25;19994;-82
2024/04/15 03:05:15;;;;;;;8.10;2.85;;;;;;;12.73;55.46;94242.53;5541511;26;19989;-82
2024/04/15 03:07:41;;;;;;;7.65;2.47;;;;;;;12.70;56.00;94238.59;5541407;26;20012;-83
2024/04/15 03:10:06;;;;;;;7.15;3.08;;;;;;;12.67;56.11;94233.09;5542787;25;19997;-82
2024/04/15 03:12:32;;;;;;;7.65;3.15;;;;;;;12.65;56.21;94239.53;5542403;26;20185;-81
2024/04/15 03:14:57;;;;;;;9.02;3.45;;;;;;;12.63;57.00;94238.28;5542083;25;19989;-82
2024/04/15 03:17:23;;;;;;;12.20;3.15;;;;;;;12.60;57.06;94244.28;5541975;25;20014;-82
2024/04/15 03:19:52;;;;;;;8.25;3.97;;;;;;;12.56;57.09;94236.09;5541801;26;20145;-82
2024/04/15 03:22:17;;;;;;;10.45;3.70;;;;;;;12.54;57.61;94227.59;5541567;26;20037;-82
2024/04/15 03:24:46;;;;;;;9.38;3.67;;;;;;;12.51;57.56;94236.25;5541634;25;20212;-82
2024/04/15 03:27:12;;;;;;;8.20;2.72;;;;;;;12.45;57.61;94232.16;5541390;25;19993;-82
2024/04/15 03:29:37;;;;;;;8.10;3.08;;;;;;;12.39;57.51;94231.53;5541375;25;19986;-82
2024/04/15 03:32:03;;;;;;;10.02;2.90;;;;;;;12.40;58.38;94235.78;5541111;26;19997;-82
2024/04/15 03:34:28;;;;;;;7.32;2.92;;;;;;;12.33;58.64;94226.66;5541006;26;20014;-81
2024/04/15 03:36:54;;;;;;;9.38;2.80;;;;;;;12.31;58.39;94237.66;5541022;26;19989;-82
2024/04/15 03:39:19;;;;;;;7.28;2.42;;;;;;;12.30;58.20;94240.66;5541410;25;20042;-83
2024/04/15 03:41:45;;;;;;;7.60;3.28;;;;;;;12.28;57.61;94235.63;5541603;25;20014;-83
2024/04/15 03:44:10;;;;;;;5.63;2.75;;;;;;;12.28;57.19;94237.53;5509941;26;20145;-83
2024/04/15 03:46:35;;;;;;;7.57;2.40;;;;;;;12.29;57.28;94242.53;5541784;25;19989;-83
2024/04/15 03:49:01;;;;;;;6.85;2.38;;;;;;;12.34;56.99;94236.25;5541079;25;20038;-83
2024/04/15 03:51:26;;;;;;;5.68;2.25;;;;;;;12.36;57.26;94240.19;5540691;26;19981;-82
2024/04/15 03:53:52;;;;;;;5.22;2.25;;;;;;;12.38;58.03;94240.66;5540745;25;20191;-82
2024/04/15 03:56:19;;;;;;;9.25;2.75;;;;;;;12.38;58.30;94242.56;5540343;26;20049;-84
2024/04/15 03:58:45;;;;;;;7.00;2.63;;;;;;;12.37;58.08;94246.31;5540479;25;20072;-83
2024/04/15 04:01:10;;;;;;;13.10;3.00;;;;;;;12.32;58.64;94244.59;5540916;26;19985;-81
2024/04/15 04:03:35;;;;;;;5.35;2.67;;;;;;;12.36;58.29;94244.75;5541116;26;20069;-81
2024/04/15 04:06:01;;;;;;;8.50;2.72;;;;;;;12.38;58.33;94248.69;5541179;25;19989;-83
2024/04/15 04:08:26;;;;;;;7.45;2.60;;;;;;;12.38;58.90;94250.56;5541145;26;20092;-84
2024/04/15 04:10:52;;;;;;;6.85;2.65;;;;;;;12.40;58.73;94249.16;5540977;25;20207;-84
2024/04/15 04:13:17;;;;;;;9.88;2.55;;;;;;;12.41;58.45;94253.38;5540418;25;19997;-83
2024/04/15 04:15:44;;;;;;;7.63;2.55;;;;;;;12.42;58.93;94243.50;5540632;25;19989;-83
2024/04/15 04:18:10;;;;;;;9.23;2.50;;;;;;;12.47;59.54;94255.91;5540590;26;19989;-83
2024/04/15 04:20:35;;;;;;;8.90;2.80;;;;;;;12.50;59.11;94247.28;5540706;25;20026;-84
2024/04/15 04:23:00;;;;;;;6.55;2.75;;;;;;;12.52;59.33;94248.53;5540470;26;19992;-84
2024/04/15 04:25:26;;;;;;;12.23;4.13;;;;;;;12.55;58.77;94241.75;5541269;25;20130;-84
2024/04/15 04:27:52;;;;;;;12.85;3.72;;;;;;;12.59;58.86;94248.81;5540167;26;19985;-83
2024/04/15 04:30:17;;;;;;;15.00;3.47;;;;;;;12.65;58.73;94250.22;5540876;26;20016;-84
2024/04/15 04:32:43;;;;;;;21.00;3.28;;;;;;;12.74;58.84;94241.41;5540863;25;20081;-84
2024/04/15 04:35:09;;;;;;;17.98;3.28;;;;;;;12.81;58.46;94249.75;5540788;25;19989;-83
2024/04/15 04:37:35;;;;;;;6.32;2.58;;;;;;;12.85;58.31;94250.69;5540924;25;20013;-81
2024/04/15 04:40:00;;;;;;;7.22;3.65;;;;;;;12.88;58.78;94249.25;5540312;26;19982;-82
2024/04/15 04:42:26;;;;;;;15.73;3.13;;;;;;;12.92;58.77;94248.31;5540114;26;20196;-82
2024/04/15 04:44:55;;;;;;;19.27;3.35;;;;;;;13.00;59.56;94252.06;5540025;25;20088;-83
2024/04/15 04:47:21;;;;;;;21.88;4.65;;;;;;;13.10;58.78;94246.38;5540260;26;19993;-81
2024/04/15 04:49:53;;;;;;;17.75;3.58;;;;;;;13.22;58.79;94240.38;5539767;26;19993;-81
2024/04/15 04:52:19;;;;;;;10.50;4.28;;;;;;;13.34;58.75;94248.53;5540350;25;20248;-82
2024/04/15 04:54:45;;;;;;;29.60;4.80;;;;;;;13.47;59.08;94244.09;5540196;26;19992;-81
2024/04/15 04:57:10;;;;;;;14.50;4.40;;;;;;;13.50;58.13;94240.00;5508128;25;20081;-80
2024/04/15 04:59:37;;;;;;;27.20;5.18;;;;;;;13.54;57.72;94236.34;5539479;25;20000;-80
2024/04/15 05:02:03;;;;;;;21.05;4.43;;;;;;;13.64;57.79;94252.06;5539632;26;19992;-81
2024/04/15 05:04:29;;;;;;;15.73;4.95;;;;;;;13.73;57.86;94243.97;5539687;25;19985;-81
2024/04/15 05:06:54;;;;;;;24.85;4.50;;;;;;;13.71;57.44;94245.41;5539984;26;19985;-81
2024/04/15 05:09:20;;;;;;;10.40;5.60;;;;;;;13.71;57.18;94245.41;5539500;26;19985;-80
2024/04/15 05:11:45;;;;;;;20.23;6.03;;;;;;;13.75;56.94;94244.44;5539828;25;19997;-81
2024/04/15 05:14:11;;;;;;;22.70;4.82;;;;;;;13.73;57.55;94245.88;5539575;25;20192;-81
2024/04/15 05:16:36;;;;;;;16.30;4.32;;;;;;;13.78;56.53;94237.63;5539636;25;19982;-81
2024/04/15 05:19:02;;;;;;;14.43;4.72;;;;;;;13.81;55.25;94232.41;5539621;25;19986;-80
2024/04/15 05:21:27;;;;;;;23.88;5.82;;;;;;;13.88;55.32;94236.47;5539564;26;20084;-81
2024/04/15 05:23:53;;;;;;;23.95;6.20;;;;;;;13.88;55.66;94239.97;5538766;26;19985;-80
2024/04/15 05:26:18;;;;;;;18.70;5.00;;;;;;;13.89;54.81;94238.06;5537536;25;20158;-80
2024/04/15 05:28:44;;;;;;;13.18;4.97;;;;;;;13.94;55.13;94229.81;5536893;25;19985;-81
2024/04/15 05:31:09;;;;;;;13.40;5.65;;;;;;;14.02;54.98;94240.50;5539394;25;20027;-82
2024/04/15 05:33:35;;;;;;;21.27;6.85;;;;;;;14.06;55.62;94237.94;5538377;26;20037;-81
2024/04/15 05:36:00;;;;;;;17.98;5.22;;;;;;;14.12;55.59;94238.53;5535844;26;20038;-81
2024/04/15 05:38:25;;;;;;;12.70;5.70;;;;;;;14.16;55.54;94237.56;5536640;26;19982;-81
2024/04/15 05:40:51;;;;;;;28.05;5.63;;;;;;;14.21;55.00;94231.25;5536127;25;19986;-81
2024/04/15 05:43:16;;;;;;;17.52;4.60;;;;;;;14.28;54.92;94233.38;5537746;25;19989;-82
2024/04/15 05:45:43;;;;;;;16.33;5.97;;;;;;;14.37;55.36;94234.09;5538260;26;20113;-80
2024/04/15 05:48:09;;;;;;;23.63;5.97;;;;;;;14.41;56.00;94238.50;5537807;26;19981;-80
2024/04/15 05:50:35;;;;;;;23.05;5.97;;;;;;;14.42;56.08;94234.69;5538877;25;19981;-81
2024/04/15 05:53:01;;;;;;;26.45;7.00;;;;;;;14.49;56.22;94228.81;5539154;25;19992;-81
2024/04/15 05:55:26;;;;;;;16.38;6.22;;;;;;;14.59;56.37;94227.66;5538928;25;20121;-82
2024/04/15 05:57:52;;;;;;;18.00;6.55;;;;;;;14.69;56.06;94226.47;5538716;26;19985;-82
2024/04/15 06:00:19;;;;;;;31.35;7.32;;;;;;;14.80;55.53;94223.03;5539376;25;20070;-83
2024/04/15 06:02:45;;;;;;;32.22;6.47;;;;;;;14.89;55.03;94225.63;5539118;26;19987;-80
2024/04/15 06:05:10;;;;;;;24.50;6.70;;;;;;;15.00;55.12;94224.13;5538332;25;19991;-80
2024/04/15 06:07:36;;;;;;;36.13;7.28;;;;;;;15.11;54.75;94226.38;5538661;26;19996;-80
2024/04/15 06:10:01;;;;;;;21.00;6.32;;;;;;;15.17;54.72;94217.00;5538516;26;19982;-81
2024/04/15 06:12:29;;;;;;;13.38;5.05;;;;;;;15.15;55.06;94213.84;5538929;25;19990;-81
2024/04/15 06:14:55;;;;;;;14.98;5.65;;;;;;;15.25;54.12;94216.09;5538358;26;20016;-81
2024/04/15 06:17:20;;;;;;;23.48;6.78;;;;;;;15.38;53.87;94204.25;5538723;26;19996;-81
2024/04/15 06:19:46;;;;;;;13.85;5.40;;;;;;;15.54;54.17;94214.34;5538651;25;19989;-84
2024/04/15 06:22:11;;;;;;;24.98;6.18;;;;;;;15.67;53.32;94209.75;5538709;26;19982;-83
2024/04/15 06:24:36;;;;;;;19.48;7.63;;;;;;;15.78;52.53;94208.22;5538397;25;20034;-83
2024/04/15 06:27:02;;;;;;;13.60;5.60;;;;;;;15.88;51.89;94198.91;5538391;25;19985;-81
2024/04/15 06:29:27;;;;;;;25.90;5.25;;;;;;;15.99;50.90;94195.41;5506262;26;19996;-81
2024/04/15 06:31:53;;;;;;;14.65;4.82;;;;;;;16.11;50.47;94204.59;5538601;25;20000;-81
2024/04/15 06:34:21;;;;;;;23.40;4.72;;;;;;;16.28;49.79;94200.84;5538574;26;19981;-86
2024/04/15 06:36:50;;;;;;;17.92;5.55;;;;;;;16.38;49.64;94201.13;5541064;26;19997;-85
2024/04/15 06:39:15;;;;;;;29.48;5.20;;;;;;;16.53;48.74;94202.34;5542644;25;19992;-85
2024/04/15 06:41:40;;;;;;;19.83;4.05;;;;;;;16.65;47.35;94199.59;5542749;25;20168;-85
2024/04/15 06:44:06;;;;;;;8.75;4.00;;;;;;;16.76;47.08;94188.34;5542685;25;19989;-85
2024/04/15 06:46:32;;;;;;;20.15;3.70;;;;;;;16.81;46.89;94199.69;5542996;26;19993;-85
2024/04/15 06:48:58;;;;;;;12.90;3.20;;;;;;;16.91;46.13;94195.69;5542222;25;19993;-85
2024/04/15 06:51:23;;;;;;;21.35;3.28;;;;;;;16.99;46.03;94197.44;5542642;25;20096;-85
2024/04/15 06:53:49;;;;;;;9.45;3.33;;;;;;;17.09;45.60;94184.59;5510882;25;20042;-90
2024/04/15 06:56:16;;;;;;;7.38;2.90;;;;;;;17.14;44.69;94185.13;5543393;25;20041;-89
2024/04/15 06:58:42;;;;;;;14.55;2.80;;;;;;;17.27;44.84;94193.91;5543173;26;19993;-89
2024/04/15 07:01:08;;;;;;;14.40;4.15;;;;;;;17.38;44.17;94184.19;5544163;26;20009;-89
2024/04/15 07:03:33;;;;;;;17.40;2.70;;;;;;;17.49;44.12;94180.97;5542580;26;19993;-85
2024/04/15 07:05:58;;;;;;;8.75;2.33;;;;;;;17.61;44.65;94187.03;5542459;25;20203;-86
2024/04/15 07:08:24;;;;;;;7.40;2.45;;;;;;;17.74;43.35;94176.16;5541943;25;20205;-85
2024/04/15 07:10:51;;;;;;;5.65;2.38;;;;;;;17.82;43.06;94180.59;5542240;26;19993;-83
2024/04/15 07:13:17;;;;;;;14.25;2.65;;;;;;;17.91;42.66;94175.03;5543843;26;19993;-83
2024/04/15 07:15:43;;;;;;;12.93;2.45;;;;;;;17.96;42.62;94182.84;5541559;25;20040;-83
2024/04/15 07:18:08;;;;;;;10.23;2.53;;;;;;;18.04;43.11;94179.94;5542407;25;19985;-83
2024/04/15 07:20:33;;;;;;;13.07;2.97;;;;;;;18.13;42.49;94170.88;5511005;26;19989;-83
2024/04/15 07:22:59;;;;;;;6.80;3.45;;;;;;;18.26;41.70;94177.72;5541733;25;20034;-83
2024/04/15 07:25:24;;;;;;;9.18;3.15;;;;;;;18.32;41.76;94167.41;5542422;25;19989;-83
2024/04/15 07:27:49;;;;;;;14.15;2.95;;;;;;;18.43;41.78;94158.41;5541798;25;20001;-83
2024/04/15 07:30:15;;;;;;;9.98;2.97;;;;;;;18.49;41.18;94166.22;5542308;26;19982;-84
2024/04/15 07:32:40;;;;;;;7.18;3.05;;;;;;;18.55;41.55;94159.41;5541942;25;20034;-84
2024/04/15 07:35:06;;;;;;;17.85;2.65;;;;;;;18.61;41.08;94157.97;5542702;26;19989;-83
2024/04/15 07:37:32;;;;;;;12.65;2.63;;;;;;;18.63;40.59;94151.06;5543424;26;19985;-90
2024/04/15 07:39:57;;;;;;;7.85;2.28;;;;;;;18.70;40.71;94150.41;5541896;25;20001;-82
2024/04/15 07:42:23;;;;;;;4.97;2.65;;;;;;;18.82;41.01;94149.53;5542776;26;19989;-83
2024/04/15 07:44:49;;;;;;;8.45;2.70;;;;;;;18.96;40.72;94141.66;5542209;25;20188;-84
2024/04/15 07:47:15;;;;;;;10.90;2.80;;;;;;;19.06;40.60;94145.72;5541620;26;20006;-83
2024/04/15 07:49:41;;;;;;;11.82;2.53;;;;;;;19.18;40.76;94147.47;5541204;25;19993;-84
2024/04/15 07:52:06;;;;;;;17.55;2.88;;;;;;;19.32;40.04;94145.00;5542670;25;19996;-84
2024/04/15 07:54:32;;;;;;;14.80;2.65;;;;;;;19.39;39.93;94141.63;5542222;25;19981;-84
2024/04/15 07:56:57;;;;;;;8.80;3.25;;;;;;;19.39;39.37;94136.22;5542244;25;19981;-84
2024/04/15 07:59:23;;;;;;;20.15;2.92;;;;;;;19.47;39.37;94129.00;5542458;26;19992;-83
2024/04/15 08:01:48;;;;;;;12.05;3.13;;;;;;;19.57;39.60;94131.09;5510996;26;19985;-85
2024/04/15 08:04:14;;;;;;;15.43;2.70;;;;;;;19.64;39.63;94126.56;5542146;25;20185;-84
2024/04/15 08:06:39;;;;;;;7.00;2.50;;;;;;;19.72;39.80;94127.50;5542220;25;20105;-84
2024/04/15 08:09:07;;;;;;;18.85;3.00;;;;;;;19.82;39.69;94121.44;5542086;26;20033;-84
2024/04/15 08:11:32;;;;;;;9.57;3.13;;;;;;;19.89;39.33;94125.41;5542095;25;19986;-84
2024/04/15 08:13:58;;;;;;;9.90;2.80;;;;;;;19.89;38.87;94126.16;5541917;25;19993;-84
2024/04/15 08:16:23;;;;;;;12.63;2.80;;;;;;;19.91;39.02;94123.88;5541504;26;20041;-81
2024/04/15 08:18:48;;;;;;;10.50;2.40;;;;;;;19.99;38.83;94111.25;5541336;25;20017;-81
2024/04/15 08:21:14;;;;;;;11.57;3.30;;;;;;;20.00;39.02;94116.25;5509565;26;20100;-82
2024/04/15 08:23:39;;;;;;;19.70;3.90;;;;;;;20.15;39.14;94114.53;5541476;26;19986;-81
2024/04/15 08:26:07;;;;;;;19.17;4.82;;;;;;;20.28;38.61;94115.06;5541738;25;19986;-81
2024/04/15 08:28:33;;;;;;;11.77;2.92;;;;;;;20.34;38.37;94107.41;5541067;25;19997;-81
2024/04/15 08:30:58;;;;;;;12.45;3.47;;;;;;;20.38;37.73;94114.41;5541099;25;20004;-81
2024/04/15 08:33:24;;;;;;;10.68;3.60;;;;;;;20.46;38.64;94090.16;5541441;26;19996;-81
2024/04/15 08:35:49;;;;;;;14.40;2.90;;;;;;;20.48;38.57;94088.63;5541316;26;20197;-80
2024/04/15 08:38:15;;;;;;;12.40;3.63;;;;;;;20.58;38.02;94101.53;5541711;25;19989;-80
2024/04/15 08:41:00;;;;;;;11.27;3.60;;;;;;;20.68;37.99;94091.97;5509951;26;19990;-82
2024/04/15 08:43:27;;;;;;;12.77;3.08;;;;;;;20.73;38.08;94085.41;5541256;25;19993;-83
2024/04/15 08:45:57;;;;;;;14.32;3.55;;;;;;;20.87;37.65;94090.97;5541529;25;19990;-80
2024/04/15 08:48:24;;;;;;;12.18;3.80;;;;;;;20.95;38.02;94087.19;5541473;25;19992;-80
2024/04/15 08:50:51;;;;;;;20.48;3.63;;;;;;;21.03;37.14;94086.09;5541330;26;20101;-82
2024/04/15 08:53:17;;;;;;;18.65;4.47;;;;;;;21.14;37.08;94086.19;5541896;25;19991;-83
2024/04/15 08:55:42;;;;;;;9.57;2.90;;;;;;;21.23;36.56;94075.03;5541675;26;19985;-82
2024/04/15 08:58:11;;;;;;;13.95;3.15;;;;;;;21.30;37.03;94075.06;5541794;26;19981;-83
2024/04/15 09:00:38;;;;;;;10.88;2.90;;;;;;;21.41;37.55;94078.66;5539912;26;20133;-81
2024/04/15 09:03:05;;;;;;;16.52;3.50;;;;;;;21.43;35.82;94079.09;5540785;25;19985;-81
2024/04/15 09:05:30;;;;;;;8.32;3.40;;;;;;;21.50;35.51;94069.44;5540946;26;20027;-80
2024/04/15 09:07:56;;;;;;;17.35;3.55;;;;;;;21.59;35.57;94069.88;5541657;25;19993;-83
2024/04/15 09:10:22;;;;;;;16.25;3.63;;;;;;;21.68;35.91;94064.91;5541153;26;20166;-81
2024/04/15 09:12:48;;;;;;;10.98;3.30;;;;;;;21.79;35.77;94046.75;5541276;25;20195;-81
2024/04/15 09:15:15;;;;;;;20.45;3.28;;;;;;;21.92;35.69;94057.28;5541279;25;19986;-81
2024/04/15 09:17:41;;;;;;;16.05;3.08;;;;;;;21.95;35.64;94049.16;5541211;25;19993;-79
2024/04/15 09:20:08;;;;;;;6.97;2.92;;;;;;;22.06;35.36;94051.13;5541816;25;20021;-81
2024/04/15 09:22:35;;;;;;;10.23;3.33;;;;;;;22.11;34.44;94037.97;5542134;25;19982;-80
2024/04/15 09:25:01;;;;;;;8.85;3.20;;;;;;;22.22;34.49;94038.00;5541369;26;19988;-82
2024/04/15 09:27:27;;;;;;;5.88;2.70;;;;;;;22.35;34.53;94038.50;5540728;26;19989;-81
2024/04/15 09:29:54;;;;;;;16.77;3.67;;;;;;;22.35;34.25;94027.63;5540215;25;20084;-80
2024/04/15 09:32:20;;;;;;;14.52;3.95;;;;;;;22.42;34.48;94027.63;5539888;25;19993;-81
2024/04/15 09:34:46;;;;;;;10.27;3.38;;;;;;;22.59;34.34;94018.75;5539874;25;19997;-80
2024/04/15 09:37:12;;;;;;;16.85;2.78;;;;;;;22.77;34.37;94018.00;5539710;26;20037;-80
2024/04/15 09:39:37;;;;;;;15.13;3.35;;;;;;;22.90;33.51;94012.94;5539956;26;19985;-80
2024/04/15 09:42:05;;;;;;;10.25;2.92;;;;;;;23.04;33.64;94018.44;5539901;26;19993;-81
2024/04/15 09:44:32;;;;;;;16.73;2.97;;;;;;;23.24;32.79;94007.91;5540181;25;20076;-80
2024/04/15 09:47:02;;;;;;;10.40;2.80;;;;;;;23.38;32.43;94005.19;5539870;26;20042;-80
2024/04/15 09:49:29;;;;;;;20.33;2.88;;;;;;;23.48;32.47;94002.84;5539429;25;19999;-79
2024/04/15 09:52:03;;;;;;;13.43;3.67;;;;;;;23.66;32.47;93992.69;5539691;25;19989;-81
2024/04/15 09:54:33;;;;;;;11.07;3.47;;;;;;;23.73;32.26;93989.97;5538067;26;19985;-80
2024/04/15 09:57:08;;;;;;;9.65;2.92;;;;;;;23.71;32.41;93999.66;5539285;25;20041;-79
2024/04/15 09:59:38;;;;;;;13.02;3.13;;;;;;;23.89;33.18;93996.91;5539404;26;20025;-78
2024/04/15 10:02:10;;;;;;;17.98;2.90;;;;;;;24.05;33.04;93982.88;5539806;25;19985;-78
2024/04/15 10:04:38;;;;;;;8.73;3.00;;;;;;;24.18;33.42;93978.50;5539137;25;20001;-78
2024/04/15 10:07:04;;;;;;;11.68;3.08;;;;;;;24.34;33.49;93976.09;5537709;25;20000;-78
2024/04/15 10:09:30;;;;;;;11.48;3.60;;;;;;;24.44;31.91;93974.47;5535453;26;20076;-77
2024/04/15 10:11:57;;;;;;;10.32;3.17;;;;;;;24.58;32.22;93966.22;5538596;25;19992;-77
2024/04/15 10:14:22;;;;;;;6.60;3.17;;;;;;;24.70;31.63;93961.50;5537049;25;19986;-78
2024/04/15 10:16:49;;;;;;;13.27;3.00;;;;;;;24.81;32.94;93959.44;5534695;26;20074;-77
2024/04/15 10:19:24;;;;;;;17.52;3.35;;;;;;;24.92;31.84;93956.66;5535729;26;19982;-77
2024/04/15 10:21:49;;;;;;;7.00;3.10;;;;;;;25.00;30.81;93953.47;5536708;26;20050;-78
2024/04/15 10:24:14;;;;;;;11.48;3.72;;;;;;;24.96;30.07;93944.53;5536140;25;19986;-78
2024/04/15 10:26:43;;;;;;;10.80;3.22;;;;;;;24.97;31.22;93959.72;5537700;25;19981;-77
2024/04/15 10:29:16;;;;;;;11.43;2.97;;;;;;;25.03;30.54;93943.69;5538221;25;19985;-78
2024/04/15 10:31:41;;;;;;;18.40;3.42;;;;;;;25.08;30.21;93946.00;5539174;25;19996;-77
2024/04/15 10:34:07;;;;;;;15.52;2.95;;;;;;;25.20;29.24;93933.81;5538935;25;20188;-78
2024/04/15 10:36:35;;;;;;;11.93;2.90;;;;;;;25.37;29.61;93930.13;5538786;25;19997;-78
2024/04/15 10:39:04;;;;;;;9.00;2.28;;;;;;;25.42;27.53;93932.44;5539181;25;19986;-78
2024/04/15 10:41:29;;;;;;;7.40;2.45;;;;;;;25.55;28.05;93916.31;5538871;26;19982;-78
2024/04/15 10:43:55;;;;;;;11.43;2.95;;;;;;;25.54;28.52;93912.00;5538763;25;20050;-78
2024/04/15 10:46:22;;;;;;;6.70;2.97;;;;;;;25.66;29.95;93912.69;5538864;26;20008;-78
2024/04/15 10:48:47;;;;;;;7.38;2.35;;;;;;;25.63;28.35;93909.59;5538897;26;19998;-78
2024/04/15 10:51:13;;;;;;;12.02;2.15;;;;;;;25.76;28.37;93895.41;5538090;25;20099;-77
2024/04/15 10:53:40;;;;;;;9.70;2.38;;;;;;;25.87;27.12;93900.72;5506907;25;19994;-78
2024/04/15 10:56:08;;;;;;;21.20;5.22;;;;;;;25.92;28.65;93886.66;5539032;25;20170;-78
2024/04/15 10:58:36;;;;;;;8.88;2.75;;;;;;;26.02;27.79;93881.03;5538420;26;19998;-78
2024/04/15 11:01:01;;;;;;;7.47;2.50;;;;;;;26.16;27.49;93873.81;5506696;26;20013;-78
2024/04/15 11:03:28;;;;;;;11.65;2.67;;;;;;;26.22;26.52;93867.47;5538541;25;19993;-78
2024/04/15 11:05:53;;;;;;;6.38;2.20;;;;;;;26.35;25.31;93870.41;5538956;26;19992;-78
2024/04/15 11:08:18;;;;;;;7.85;2.60;;;;;;;26.48;26.02;93867.09;5538165;25;20001;-78
2024/04/15 11:10:44;;;;;;;7.32;2.42;;;;;;;26.57;26.13;93867.34;5538234;25;19985;-77
2024/04/15 11:13:13;;;;;;;15.43;3.03;;;;;;;26.70;25.82;93856.63;5538433;26;19989;-78
2024/04/15 11:15:39;;;;;;;8.57;2.97;;;;;;;26.81;26.97;93857.97;5538185;25;19989;-78
2024/04/15 11:18:13;;;;;;;5.63;2.47;;;;;;;26.96;27.27;93847.56;5538593;25;20080;-79
2024/04/15 11:20:38;;;;;;;5.38;2.63;;;;;;;27.07;26.89;93852.06;5538118;25;19994;-78
2024/04/15 11:23:03;;;;;;;8.48;2.47;;;;;;;27.21;25.62;93841.63;5538338;26;20206;-78